createdAt,value
2023-04-26T00:02:27.846Z,8.33
2023-04-26T00:04:56.432Z,8.30
2023-04-26T00:07:25.031Z,8.22
2023-04-26T00:09:52.757Z,8.21
2023-04-26T00:12:20.513Z,8.15
2023-04-26T00:14:47.914Z,8.24
2023-04-26T00:17:15.493Z,8.14
2023-04-26T00:19:42.853Z,8.03
2023-04-26T00:22:10.898Z,7.98
2023-04-26T00:24:38.151Z,8.02
2023-04-26T00:27:09.143Z,8.03
2023-04-26T00:29:37.458Z,8.12
2023-04-26T00:32:05.810Z,8.05
2023-04-26T00:34:37.902Z,8.08
2023-04-26T00:37:06.311Z,8.05
2023-04-26T00:39:35.740Z,7.99
2023-04-26T00:42:03.212Z,8.05
2023-04-26T00:44:30.491Z,8.02
2023-04-26T00:46:58.311Z,8.03
2023-04-26T00:49:26.382Z,8.08
2023-04-26T00:51:54.638Z,8.17
2023-04-26T00:54:22.137Z,8.22
2023-04-26T00:56:52.065Z,8.28
2023-04-26T00:59:22.824Z,8.28
2023-04-26T01:01:50.089Z,8.28
2023-04-26T01:04:18.293Z,8.29
2023-04-26T01:06:46.280Z,8.30
2023-04-26T01:09:15.288Z,8.19
2023-04-26T01:11:43.708Z,8.08
2023-04-26T01:14:11.796Z,8.05
2023-04-26T01:16:40.803Z,8.02
2023-04-26T01:19:15.225Z,7.95
2023-04-26T01:21:43.159Z,7.82
2023-04-26T01:24:13.650Z,7.74
2023-04-26T01:26:46.500Z,7.74
2023-04-26T01:29:21.897Z,7.63
2023-04-26T01:31:49.497Z,7.63
2023-04-26T01:34:17.260Z,7.59
2023-04-26T01:36:46.536Z,7.52
2023-04-26T01:39:13.848Z,7.45
2023-04-26T01:41:41.122Z,7.40
2023-04-26T01:44:08.366Z,7.48
2023-04-26T01:46:35.760Z,7.44
2023-04-26T01:49:03.253Z,7.38
2023-04-26T01:51:30.668Z,7.34
2023-04-26T01:53:58.018Z,7.36
2023-04-26T01:56:25.976Z,7.29
2023-04-26T01:58:56.296Z,7.23
2023-04-26T02:01:24.160Z,7.21
2023-04-26T02:03:52.213Z,7.18
2023-04-26T02:06:21.448Z,7.09
2023-04-26T02:08:49.373Z,6.94
2023-04-26T02:11:16.865Z,6.90
2023-04-26T02:13:44.097Z,6.98
2023-04-26T02:16:11.506Z,6.98
2023-04-26T02:18:39.186Z,7.09
2023-04-26T02:21:11.685Z,7.07
2023-04-26T02:23:39.142Z,7.04
2023-04-26T02:26:06.420Z,6.96
2023-04-26T02:28:33.719Z,6.81
2023-04-26T02:31:03.157Z,6.65
2023-04-26T02:33:31.266Z,6.74
2023-04-26T02:35:59.012Z,6.86
2023-04-26T02:38:26.397Z,6.85
2023-04-26T02:41:04.393Z,6.72
2023-04-26T02:43:31.914Z,6.65
2023-04-26T02:46:00.937Z,6.77
2023-04-26T02:48:28.196Z,6.81
2023-04-26T02:50:55.532Z,6.83
2023-04-26T02:53:22.823Z,6.84
2023-04-26T02:55:50.027Z,6.83
2023-04-26T02:58:17.487Z,6.82
2023-04-26T03:00:48.464Z,6.81
2023-04-26T03:03:16.781Z,6.75
2023-04-26T03:05:46.221Z,6.75
2023-04-26T03:08:13.500Z,6.72
2023-04-26T03:10:40.700Z,6.65
2023-04-26T03:13:08.277Z,6.59
2023-04-26T03:15:36.037Z,6.52
2023-04-26T03:18:03.498Z,6.42
2023-04-26T03:20:30.963Z,6.49
2023-04-26T03:22:58.189Z,6.51
2023-04-26T03:25:26.268Z,6.52
2023-04-26T03:27:55.308Z,6.50
2023-04-26T03:30:22.570Z,6.47
2023-04-26T03:32:49.917Z,6.46
2023-04-26T03:35:17.388Z,6.44
2023-04-26T03:37:45.314Z,6.46
2023-04-26T03:40:14.208Z,6.44
2023-04-26T03:42:41.386Z,6.30
2023-04-26T03:45:09.517Z,6.17
2023-04-26T03:47:36.763Z,6.18
2023-04-26T03:50:04.617Z,6.24
2023-04-26T03:52:31.821Z,6.22
2023-04-26T03:54:59.265Z,6.14
2023-04-26T03:57:26.725Z,6.22
2023-04-26T03:59:53.946Z,6.26
2023-04-26T04:02:21.606Z,6.09
2023-04-26T04:04:49.150Z,6.17
2023-04-26T04:07:16.744Z,6.13
2023-04-26T04:09:44.062Z,6.19
2023-04-26T04:12:11.530Z,6.07
2023-04-26T04:14:39.104Z,6.09
2023-04-26T04:17:08.429Z,6.11
2023-04-26T04:19:37.374Z,6.22
2023-04-26T04:22:04.724Z,6.19
2023-04-26T04:24:34.297Z,6.21
2023-04-26T04:27:01.696Z,6.21
2023-04-26T04:29:29.120Z,6.23
2023-04-26T04:31:57.271Z,6.22
2023-04-26T04:34:24.533Z,6.28
2023-04-26T04:36:51.958Z,6.27
2023-04-26T04:39:19.573Z,6.31
2023-04-26T04:41:49.863Z,6.24
2023-04-26T04:44:18.944Z,6.30
2023-04-26T04:46:47.548Z,6.30
2023-04-26T04:49:15.417Z,6.37
2023-04-26T04:51:42.955Z,6.36
2023-04-26T04:54:18.704Z,6.36
2023-04-26T04:56:48.210Z,6.43
2023-04-26T04:59:16.822Z,6.43
2023-04-26T05:01:43.976Z,6.51
2023-04-26T05:04:14.670Z,6.56
2023-04-26T05:06:42.474Z,6.58
2023-04-26T05:09:11.364Z,6.65
2023-04-26T05:11:38.640Z,6.74
2023-04-26T05:14:07.631Z,6.81
2023-04-26T05:16:35.852Z,6.85
2023-04-26T05:19:03.631Z,6.91
2023-04-26T05:21:31.524Z,6.99
2023-04-26T05:23:58.759Z,7.12
2023-04-26T05:26:26.557Z,7.20
2023-04-26T05:29:12.160Z,7.31
2023-04-26T05:32:03.827Z,7.38
2023-04-26T05:34:41.520Z,7.50
2023-04-26T05:37:12.105Z,7.60
2023-04-26T05:39:39.260Z,7.71
2023-04-26T05:42:06.862Z,7.76
2023-04-26T05:44:34.120Z,8.01
2023-04-26T05:47:02.395Z,7.99
2023-04-26T05:49:29.599Z,7.98
2023-04-26T05:52:00.562Z,8.02
2023-04-26T05:54:28.352Z,8.01
2023-04-26T05:56:57.838Z,8.07
2023-04-26T05:59:26.388Z,8.21
2023-04-26T06:01:54.693Z,8.23
2023-04-26T06:04:22.049Z,8.48
2023-04-26T06:07:01.665Z,8.51
2023-04-26T06:09:32.318Z,8.47
2023-04-26T06:11:59.775Z,8.56
2023-04-26T06:14:30.773Z,8.66
2023-04-26T06:17:03.370Z,8.81
2023-04-26T06:19:30.694Z,8.85
2023-04-26T06:21:57.926Z,8.92
2023-04-26T06:24:26.053Z,9.07
2023-04-26T06:26:53.487Z,9.20
2023-04-26T06:29:21.658Z,9.34
2023-04-26T06:31:49.081Z,9.48
2023-04-26T06:34:17.968Z,9.59
2023-04-26T06:36:46.103Z,9.72
2023-04-26T06:39:13.453Z,9.79
2023-04-26T06:41:43.358Z,9.87
2023-04-26T06:44:11.810Z,9.90
2023-04-26T06:46:43.058Z,9.96
2023-04-26T06:49:11.504Z,9.99
2023-04-26T06:51:38.729Z,10.09
2023-04-26T06:54:06.071Z,10.18
2023-04-26T06:56:33.304Z,10.32
2023-04-26T06:59:07.020Z,10.39
2023-04-26T07:01:35.710Z,10.44
2023-04-26T07:04:10.964Z,10.64
2023-04-26T07:06:39.311Z,10.68
2023-04-26T07:09:07.734Z,10.69
2023-04-26T07:11:34.877Z,10.72
2023-04-26T07:14:02.092Z,10.69
2023-04-26T07:16:29.336Z,10.81
2023-04-26T07:18:59.722Z,10.96
2023-04-26T07:21:27.087Z,11.09
2023-04-26T07:23:58.068Z,11.30
2023-04-26T07:26:27.062Z,11.28
2023-04-26T07:28:54.517Z,11.42
2023-04-26T07:31:21.815Z,11.55
2023-04-26T07:33:49.130Z,11.47
2023-04-26T07:36:16.355Z,11.47
2023-04-26T07:38:43.560Z,11.44
2023-04-26T07:41:12.902Z,11.59
2023-04-26T07:43:40.207Z,11.80
2023-04-26T07:46:07.403Z,11.77
2023-04-26T07:48:34.649Z,11.89
2023-04-26T07:51:12.826Z,12.01
2023-04-26T07:53:41.192Z,12.17
2023-04-26T07:56:09.336Z,12.23
2023-04-26T07:58:39.630Z,12.42
2023-04-26T08:01:07.041Z,12.40
2023-04-26T08:03:34.722Z,12.38
2023-04-26T08:06:02.553Z,12.36
2023-04-26T08:08:29.960Z,12.47
2023-04-26T08:10:57.215Z,12.55
2023-04-26T08:13:26.300Z,12.69
2023-04-26T08:15:55.596Z,12.96
2023-04-26T08:18:22.814Z,12.94
2023-04-26T08:20:49.999Z,13.07
2023-04-26T08:23:19.459Z,13.02
2023-04-26T08:25:47.877Z,13.02
2023-04-26T08:28:16.377Z,13.08
2023-04-26T08:30:43.697Z,13.22
2023-04-26T08:33:11.211Z,13.21
2023-04-26T08:35:38.393Z,13.33
2023-04-26T08:38:05.628Z,13.32
2023-04-26T08:40:33.488Z,13.44
2023-04-26T08:43:00.942Z,13.56
2023-04-26T08:45:28.165Z,13.77
2023-04-26T08:48:09.304Z,13.84
2023-04-26T08:50:38.930Z,13.97
2023-04-26T08:53:08.001Z,14.06
2023-04-26T08:55:36.873Z,14.09
2023-04-26T08:58:05.221Z,14.07
2023-04-26T09:00:32.508Z,14.16
2023-04-26T09:02:59.833Z,14.16
2023-04-26T09:05:27.267Z,14.22
2023-04-26T09:08:00.810Z,14.10
2023-04-26T09:10:28.226Z,14.47
2023-04-26T09:12:56.508Z,14.70
2023-04-26T09:15:26.434Z,14.64
2023-04-26T09:17:54.245Z,14.56
2023-04-26T09:20:22.972Z,14.51
2023-04-26T09:23:05.178Z,14.55
2023-04-26T09:25:33.371Z,14.88
2023-04-26T09:28:01.750Z,14.89
2023-04-26T09:30:30.684Z,14.96
2023-04-26T09:33:04.752Z,15.19
2023-04-26T09:35:41.214Z,15.24
2023-04-26T09:38:16.570Z,15.17
2023-04-26T09:40:49.324Z,15.07
2023-04-26T09:43:20.153Z,15.35
2023-04-26T09:45:51.787Z,15.35
2023-04-26T09:48:34.896Z,15.53
2023-04-26T09:51:12.271Z,15.56
2023-04-26T09:53:46.950Z,15.65
2023-04-26T09:56:19.917Z,16.05
2023-04-26T09:58:46.941Z,16.06
2023-04-26T10:01:20.202Z,15.84
2023-04-26T10:03:47.877Z,15.62
2023-04-26T10:06:16.276Z,15.58
2023-04-26T10:08:44.117Z,15.72
2023-04-26T10:11:14.461Z,15.39
2023-04-26T10:13:43.039Z,15.49
2023-04-26T10:16:10.616Z,15.52
2023-04-26T10:18:38.307Z,15.83
2023-04-26T10:21:23.026Z,16.09
2023-04-26T10:23:52.083Z,16.20
2023-04-26T10:26:57.106Z,16.35
2023-04-26T10:29:25.962Z,15.63
2023-04-26T10:32:02.915Z,16.20
2023-04-26T10:34:33.563Z,16.50
2023-04-26T10:37:16.422Z,16.72
2023-04-26T10:39:46.354Z,16.41
2023-04-26T10:42:32.235Z,16.22
2023-04-26T10:45:00.717Z,16.72
2023-04-26T10:47:37.678Z,16.79
2023-04-26T10:50:11.263Z,17.03
2023-04-26T10:53:06.220Z,16.89
2023-04-26T10:55:43.389Z,17.11
2023-04-26T10:58:34.613Z,17.29
2023-04-26T11:01:14.466Z,17.31
2023-04-26T11:03:42.619Z,17.57
2023-04-26T11:06:15.669Z,17.42
2023-04-26T11:08:43.269Z,17.87
2023-04-26T11:11:16.580Z,20.23
2023-04-26T11:13:44.408Z,22.64
2023-04-26T11:16:17.384Z,21.96
2023-04-26T11:18:47.273Z,23.90
2023-04-26T11:21:18.150Z,26.07
2023-04-26T11:23:54.883Z,26.56
2023-04-26T11:26:22.264Z,22.64
2023-04-26T11:28:49.834Z,24.38
2023-04-26T11:31:19.548Z,24.35
2023-04-26T11:33:49.918Z,25.76
2023-04-26T11:36:19.554Z,22.69
2023-04-26T11:38:47.145Z,22.80
2023-04-26T11:41:14.360Z,24.00
2023-04-26T11:43:41.946Z,23.17
2023-04-26T11:46:10.153Z,19.76
2023-04-26T11:48:38.987Z,19.78
2023-04-26T11:51:08.571Z,21.00
2023-04-26T11:53:43.489Z,20.19
2023-04-26T11:56:23.047Z,21.35
2023-04-26T11:58:53.285Z,20.80
2023-04-26T12:01:29.797Z,18.88
2023-04-26T12:04:00.691Z,19.61
2023-04-26T12:06:46.313Z,19.92
2023-04-26T12:09:13.790Z,19.43
2023-04-26T12:11:41.267Z,19.64
2023-04-26T12:14:10.090Z,20.08
2023-04-26T12:16:42.768Z,19.30
2023-04-26T12:19:11.173Z,19.77
2023-04-26T12:21:43.358Z,20.15
2023-04-26T12:24:36.691Z,19.96
2023-04-26T12:27:09.489Z,20.01
2023-04-26T12:29:36.869Z,19.48
2023-04-26T12:32:04.599Z,18.59
2023-04-26T12:34:31.951Z,19.64
2023-04-26T12:36:59.170Z,19.57
2023-04-26T12:39:26.526Z,19.05
2023-04-26T12:41:56.988Z,19.00
2023-04-26T12:44:27.140Z,18.77
2023-04-26T12:46:54.308Z,19.14
2023-04-26T12:49:21.945Z,19.36
2023-04-26T12:51:49.112Z,20.04
2023-04-26T12:54:18.889Z,19.72
2023-04-26T12:56:46.907Z,20.20
2023-04-26T12:59:14.080Z,19.63
2023-04-26T13:01:41.396Z,18.90
2023-04-26T13:04:10.050Z,18.78
2023-04-26T13:06:40.884Z,19.66
2023-04-26T13:09:08.405Z,19.77
2023-04-26T13:11:35.741Z,19.92
2023-04-26T13:14:03.988Z,19.57
2023-04-26T13:16:34.309Z,20.28
2023-04-26T13:19:01.642Z,20.50
2023-04-26T13:21:28.936Z,20.84
2023-04-26T13:23:56.124Z,20.99
2023-04-26T13:26:27.658Z,21.87
2023-04-26T13:28:55.871Z,22.00
2023-04-26T13:31:23.243Z,19.79
2023-04-26T13:33:50.791Z,20.80
2023-04-26T13:36:18.161Z,23.56
2023-04-26T13:38:45.432Z,24.84
2023-04-26T13:41:12.626Z,24.45
2023-04-26T13:43:39.923Z,22.60
2023-04-26T13:46:07.957Z,21.91
2023-04-26T13:48:35.143Z,24.51
2023-04-26T13:51:06.863Z,26.12
2023-04-26T13:53:34.636Z,23.33
2023-04-26T13:56:01.945Z,23.04
2023-04-26T13:58:29.159Z,25.18
2023-04-26T14:00:57.110Z,25.50
2023-04-26T14:03:24.255Z,26.38
2023-04-26T14:05:51.593Z,24.43
2023-04-26T14:08:18.847Z,25.04
2023-04-26T14:10:46.033Z,24.31
2023-04-26T14:13:15.873Z,22.75
2023-04-26T14:15:43.058Z,22.48
2023-04-26T14:18:11.296Z,24.23
2023-04-26T14:20:38.748Z,23.00
2023-04-26T14:23:06.283Z,22.36
2023-04-26T14:25:33.566Z,23.34
2023-04-26T14:28:02.068Z,22.45
2023-04-26T14:30:29.683Z,22.32
2023-04-26T14:32:56.880Z,23.50
2023-04-26T14:35:24.009Z,24.37
2023-04-26T14:37:51.202Z,23.66
2023-04-26T14:40:18.601Z,25.47
2023-04-26T14:42:46.272Z,22.37
2023-04-26T14:45:14.109Z,25.28
2023-04-26T14:47:41.532Z,25.70
2023-04-26T14:50:10.406Z,23.62
2023-04-26T14:52:37.943Z,26.54
2023-04-26T14:55:06.653Z,27.12
2023-04-26T14:57:34.575Z,26.47
2023-04-26T15:00:06.853Z,27.00
2023-04-26T15:02:34.466Z,29.29
2023-04-26T15:05:06.181Z,29.21
2023-04-26T15:07:33.783Z,28.78
2023-04-26T15:10:01.627Z,25.60
2023-04-26T15:12:28.986Z,26.99
2023-04-26T15:14:56.225Z,26.40
2023-04-26T15:17:23.632Z,25.03
2023-04-26T15:19:51.054Z,25.69
2023-04-26T15:22:18.248Z,25.20
2023-04-26T15:24:45.652Z,23.59
2023-04-26T15:27:12.798Z,21.64
2023-04-26T15:29:40.130Z,22.69
2023-04-26T15:32:07.314Z,23.83
2023-04-26T15:34:43.119Z,22.95
2023-04-26T15:37:11.039Z,26.07
2023-04-26T15:39:38.992Z,24.78
2023-04-26T15:42:06.914Z,24.74
2023-04-26T15:44:34.568Z,25.70
2023-04-26T15:47:02.168Z,23.86
2023-04-26T15:49:29.605Z,26.50
2023-04-26T15:51:57.105Z,24.59
2023-04-26T15:54:24.508Z,25.75
2023-04-26T15:56:53.077Z,26.25
2023-04-26T15:59:21.032Z,23.64
2023-04-26T16:01:48.320Z,24.17
2023-04-26T16:04:15.753Z,25.53
2023-04-26T16:06:43.189Z,26.38
2023-04-26T16:09:24.866Z,28.89
2023-04-26T16:11:53.145Z,27.97
2023-04-26T16:14:20.941Z,26.96
2023-04-26T16:16:48.077Z,22.24
2023-04-26T16:19:17.158Z,23.15
2023-04-26T16:21:47.511Z,25.11
2023-04-26T16:24:14.908Z,25.69
2023-04-26T16:26:42.291Z,23.84
2023-04-26T16:29:09.662Z,25.18
2023-04-26T16:31:37.127Z,23.12
2023-04-26T16:34:04.333Z,24.38
2023-04-26T16:36:31.688Z,23.68
2023-04-26T16:38:58.968Z,23.04
2023-04-26T16:41:27.824Z,23.49
2023-04-26T16:43:55.949Z,24.12
2023-04-26T16:46:23.493Z,22.10
2023-04-26T16:48:51.185Z,22.72
2023-04-26T16:51:18.542Z,21.89
2023-04-26T16:53:48.656Z,22.56
2023-04-26T16:56:16.356Z,23.83
2023-04-26T16:58:43.963Z,24.21
2023-04-26T17:01:11.888Z,23.95
2023-04-26T17:03:39.447Z,23.78
2023-04-26T17:06:07.903Z,22.74
2023-04-26T17:08:35.211Z,22.84
2023-04-26T17:11:03.008Z,23.00
2023-04-26T17:13:35.146Z,23.98
2023-04-26T17:16:02.768Z,23.59
2023-04-26T17:18:30.163Z,23.14
2023-04-26T17:20:57.723Z,23.35
2023-04-26T17:23:24.916Z,22.66
2023-04-26T17:25:54.430Z,22.58
2023-04-26T17:28:22.512Z,21.96
2023-04-26T17:30:49.791Z,21.66
2023-04-26T17:33:17.111Z,21.64
2023-04-26T17:35:44.556Z,21.00
2023-04-26T17:38:11.933Z,20.63
2023-04-26T17:40:39.668Z,20.38
2023-04-26T17:43:06.850Z,20.16
2023-04-26T17:45:34.336Z,19.98
2023-04-26T17:48:04.253Z,20.05
2023-04-26T17:50:31.769Z,20.04
2023-04-26T17:53:02.542Z,19.76
2023-04-26T17:55:31.139Z,19.49
2023-04-26T17:57:58.471Z,19.48
2023-04-26T18:00:26.206Z,19.40
2023-04-26T18:02:53.914Z,19.16
2023-04-26T18:05:21.839Z,19.12
2023-04-26T18:07:49.190Z,18.88
2023-04-26T18:10:16.696Z,18.73
2023-04-26T18:12:44.061Z,18.58
2023-04-26T18:15:12.314Z,18.41
2023-04-26T18:17:41.188Z,18.28
2023-04-26T18:20:09.554Z,18.14
2023-04-26T18:22:37.181Z,17.95
2023-04-26T18:25:05.427Z,17.82
2023-04-26T18:27:32.757Z,17.71
2023-04-26T18:30:00.313Z,17.61
2023-04-26T18:32:27.527Z,17.47
2023-04-26T18:34:54.813Z,17.38
2023-04-26T18:37:22.063Z,17.30
2023-04-26T18:39:49.281Z,17.21
2023-04-26T18:42:16.448Z,17.10
2023-04-26T18:44:43.753Z,17.02
2023-04-26T18:47:11.755Z,16.90
2023-04-26T18:49:39.014Z,16.82
2023-04-26T18:52:08.658Z,16.73
2023-04-26T18:54:39.122Z,16.66
2023-04-26T18:57:06.367Z,16.56
2023-04-26T18:59:33.519Z,16.51
2023-04-26T19:02:01.600Z,16.54
2023-04-26T19:04:28.955Z,16.46
2023-04-26T19:06:56.260Z,16.37
2023-04-26T19:09:23.478Z,16.29
2023-04-26T19:11:50.739Z,16.22
2023-04-26T19:14:18.027Z,16.20
2023-04-26T19:16:45.322Z,16.16
2023-04-26T19:19:13.723Z,16.10
2023-04-26T19:21:40.990Z,16.10
2023-04-26T19:24:13.658Z,16.06
2023-04-26T19:26:40.821Z,16.01
2023-04-26T19:29:08.140Z,15.95
2023-04-26T19:31:35.358Z,15.91
2023-04-26T19:34:03.827Z,15.92
2023-04-26T19:36:31.570Z,15.88
2023-04-26T19:38:58.755Z,15.83
2023-04-26T19:41:26.043Z,15.79
2023-04-26T19:43:53.218Z,15.70
2023-04-26T19:46:20.396Z,15.67
2023-04-26T19:48:47.827Z,15.57
2023-04-26T19:51:17.386Z,15.49
2023-04-26T19:53:45.095Z,15.37
2023-04-26T19:56:12.621Z,15.30
2023-04-26T19:58:39.904Z,15.26
2023-04-26T20:01:07.077Z,15.14
2023-04-26T20:03:34.638Z,15.03
2023-04-26T20:06:01.948Z,14.90
2023-04-26T20:08:30.964Z,14.79
2023-04-26T20:11:04.401Z,14.69
2023-04-26T20:13:32.560Z,14.64
2023-04-26T20:15:59.744Z,14.55
2023-04-26T20:18:26.956Z,14.50
2023-04-26T20:20:54.135Z,14.40
2023-04-26T20:23:21.305Z,14.26
2023-04-26T20:25:48.491Z,14.13
2023-04-26T20:28:15.620Z,14.02
2023-04-26T20:30:42.795Z,13.96
2023-04-26T20:33:10.353Z,13.81
2023-04-26T20:35:37.599Z,13.77
2023-04-26T20:38:04.797Z,13.77
2023-04-26T20:40:31.937Z,13.72
2023-04-26T20:42:59.535Z,13.64
2023-04-26T20:45:26.949Z,13.68
2023-04-26T20:47:54.362Z,13.53
2023-04-26T20:50:22.232Z,13.49
2023-04-26T20:52:49.518Z,13.45
2023-04-26T20:55:17.049Z,13.42
2023-04-26T20:57:44.372Z,13.36
2023-04-26T21:00:13.069Z,13.25
2023-04-26T21:02:41.617Z,13.17
2023-04-26T21:05:09.759Z,13.11
2023-04-26T21:07:37.004Z,13.10
2023-04-26T21:10:04.812Z,13.18
2023-04-26T21:12:32.133Z,13.12
2023-04-26T21:14:59.306Z,13.09
2023-04-26T21:17:26.738Z,13.19
2023-04-26T21:19:53.907Z,13.20
2023-04-26T21:22:21.044Z,13.17
2023-04-26T21:24:52.068Z,13.15
2023-04-26T21:27:19.289Z,13.13
2023-04-26T21:29:46.436Z,13.11
2023-04-26T21:32:13.760Z,12.98
2023-04-26T21:34:40.942Z,12.98
2023-04-26T21:37:08.187Z,13.12
2023-04-26T21:39:35.353Z,13.01
2023-04-26T21:42:03.595Z,12.98
2023-04-26T21:44:31.000Z,12.95
2023-04-26T21:46:58.273Z,12.84
2023-04-26T21:49:25.885Z,12.73
2023-04-26T21:51:53.015Z,12.69
2023-04-26T21:54:20.157Z,12.59
2023-04-26T21:56:47.300Z,12.55
2023-04-26T21:59:15.211Z,12.57
2023-04-26T22:01:42.598Z,12.53
2023-04-26T22:04:10.561Z,12.51
2023-04-26T22:06:38.238Z,12.45
2023-04-26T22:09:09.241Z,12.39
2023-04-26T22:11:36.841Z,12.31
2023-04-26T22:14:04.073Z,12.25
2023-04-26T22:16:32.010Z,12.21
2023-04-26T22:18:59.339Z,12.20
2023-04-26T22:21:26.915Z,12.15
2023-04-26T22:23:54.085Z,12.08
2023-04-26T22:26:21.514Z,11.99
2023-04-26T22:28:48.670Z,11.91
2023-04-26T22:31:15.979Z,11.92
2023-04-26T22:33:43.443Z,11.88
2023-04-26T22:36:10.955Z,11.84
2023-04-26T22:38:38.165Z,11.75
2023-04-26T22:41:07.137Z,11.72
2023-04-26T22:43:35.165Z,11.70
2023-04-26T22:46:02.994Z,11.61
2023-04-26T22:48:30.214Z,11.58
2023-04-26T22:50:57.540Z,11.56
2023-04-26T22:53:24.809Z,11.54
2023-04-26T22:55:52.041Z,11.58
2023-04-26T22:58:19.241Z,11.53
2023-04-26T23:00:46.365Z,11.42
2023-04-26T23:03:13.697Z,11.40
2023-04-26T23:05:40.979Z,11.34
2023-04-26T23:08:08.224Z,11.34
2023-04-26T23:10:35.777Z,11.35
2023-04-26T23:13:03.743Z,11.25
2023-04-26T23:15:31.855Z,11.17
2023-04-26T23:17:59.849Z,11.20
2023-04-26T23:20:27.313Z,11.28
2023-04-26T23:22:54.604Z,11.32
2023-04-26T23:25:22.042Z,11.33
2023-04-26T23:27:49.186Z,11.34
2023-04-26T23:30:16.898Z,11.28
2023-04-26T23:32:44.117Z,11.21
2023-04-26T23:35:11.283Z,11.20
2023-04-26T23:37:38.499Z,11.21
2023-04-26T23:40:07.046Z,11.19
2023-04-26T23:42:34.248Z,11.11
2023-04-26T23:45:03.231Z,11.09
2023-04-26T23:47:31.859Z,11.06
2023-04-26T23:49:59.344Z,11.05
2023-04-26T23:52:26.612Z,11.05
2023-04-26T23:54:53.862Z,11.01
2023-04-26T23:57:21.238Z,11.03
2023-04-26T23:59:48.391Z,10.99
